cloudbaseCU.php : Version 1.5 - copyright 2013 Silver Acorn Limited
Date/Time : Wed, 30 Sep 2020 15:32:29 (Day)
Time Zone : Europe/London (GMT+1 hours)
INPUT ITEM: RAW DATA -> DERIVED
    Current temp : 11.3 -> 11.3 °C
    Dewpoint : 10.2 -> 10.2 °C
    Rain Fall : 15.4 -> 15.4 mm
    Barometer : 998.4 -> 998 hPa
    Humidity : 93 -> 93 %
    Wind Speed : 1.9 -> 1.9 mph
    Wind Dir : 360 -> 360 degrees
    Cloud Altitude : 454 -> 440 ft (AGL)
    Latitude : 55 -> N = Northern Hemisphere
    Season : -> Autumn
    Moon Age : 13 -> 13 days
    Is daylight : 1 -> Day
    Realtime file Interval : 10 -> 10 Seconds
    Tag file time Interval : 5 -> 5 Minutes
CUMULUS CONDITIONS
    Cumulus conditions not in use
    Zambretti # : 6 -> 6
METAR CONDITONS - Metar Times UNC, Update Station times based on timezone setting
    $pathToMetFile : ./cache/
    Metar - Rawdata : 2020/09/30 14:20 EGAC 301420Z 30004KT 220V010 6000 RA BKN014 OVC032 11/09 Q0998
    Metar - Trimmed : 301420Z 30004KT 220V010 6000 RA BKN014 OVC032 11/09 Q0998
    Metar - Decoded : Is Raining; Mostly cloudy, Overcast
    Now : 1601476348 seconds or Station Time of 15:32:29
    Metar report timestamp : 1601475600 seconds
    Age of File : 12.47 minutes
    When to update Metar : seconds (When station time ~ 01:00:00)
        (Metar report timestamp plus 39 mins refresh time)
    Next Download in : -26691272.47 Minutes (if  '-' then refresh page, if still '-' then download overdue!)
    Metar file : New File downloaded
    Note:- Metar updates are usually Hourly unless AUTO when they may update every 30 minutes
OUTPUT DATA

    $showAGLASL : true
Cloud Temp : 9 °C
Background image file name : ./images/cb/cb-bg-00autd.png
    $useWXrain : true
    $tagint : 5
    Last rain : 5 minutes ago
    $wxrain : true
"useWXrain" results :-
    Rained in Last 5 minutes -> Is raining
SETTINGS
    $realtime : cloudbaseCU.txt
    $metarICAO : EGAC
    $pathToMetFile : ./cache/
    $tz : Europe/London - The setting in this script, may be overidden by the Saratoga SITE setting
    $pathToImages : ./images/cb/
    $pathToMoonImages : ./images/cb/moon/
    $translate : true
    $switchSeasons : true
    $showCldSource : true
    $showCloudTemp : true
    $showCaption : true
    $showMoon : true
    $showScale : true
    $showWinsock : false
    $showWindDir : false
    $showWindSpd : false
    $showTemp : false
    $showHumidity : false
    $showBaro : false
    $alwaysShowCloud : false
    $useCUHeight : false
    $getMetar : true
    $metarRefresh : true
    $useMetarAtNight : true
    $onlyUseMetar : true
    $reportMistAt : 25 ft
    $stationAltitude : 0 ft